BA 2009 neděle
Location Lesná Start Time 12.7.2009 10:59:00
Category MTBO
Distance 84,94 km Ascend 1 641,1 m Descend -1 653,7 m
Total Time 04:16:30 Moving 03:58:44 Stopped 00:17:46
Average Speed 19,9 km/h Fastest Speed 50,8 km/h Slowest Speed 0,1 km/h
Calories 5257 Average HR N/A Max HR N/A
Weather 15 °C LightRain
Equipment
Notes 3. misto MM 1300 Bouchal Jiří, Pešek Tomáš -- Čas so:05:54:04 -- Bodů so: 720 -- Penalizace so: 0 – Čas ne:04:15:27 -- Bodů ne: 620 -- Penalizace ne: 40 Sobota: 44-41-39-38-37-36-35-40-34-32-31-33-30-29-26-21-20-23-25-9-8-49 Neděle: 2-4-8-25-24-13-12-14-15-20-21-22-26-27-29-30-43-49 Dneska zas prselo, ale jenom na zacatku a posledni hodinu. davali jsme jak krava, hlavne K27 po 3 hodinach byla brutal - silenej vyslap a pak jeste silenejsi sjezd. Zase jsem pichnul, ztrata 5'. K29 (80) dole v udoli u hranic jsme razili neco pres 30' do cile, pak silenej vyjezd trictvrte hodky nahoru, uz jsem byl celkem medovej, do toho chcalo jak krava.. Pekne jsem za Tomasem vlal, nakonec jsme prijeli pozde o 15:30, ale ta 80 (K29) a 30 (K30), popr. 50 (K27), co jsme brali na konci a kvuli kterym jsme to nestihli, se vyplatili - penalizace 40. Skoda toho defektu. 3. misto s prehledem, parada, na tech asi 700kmk co mam na kole, z toho jestee dost po meste a do hospody... mapa z neděle  (směrem SV a pak na Z). 1424 Lauerman Jan, Tomeček Lubomír -- Start team - www.vosky-start.cz 1348 Vanka Petr, Bogar Frantisek -- Starej s Mladym 1300 Bouchal Jiří, Pešek Tomáš -- Plzeňská smršť 1258 Moravec Michael, Moravec Marek -- Snail MTB Team 1254 Runt Pavel, Dolanský Daniel -- Kebek 1248 klofi, pedros -- SNS Smržovka - www.sns.cz 1242 Hloušek Martin, Kříž Libor -- Štika & Drak eXtreme team 1240 Novák Petr, Kříž Jan -- X-team BaNo Karlovy Vary 1216 Jedlička Marek, Jedlička Michal -- Klokan team 1212 Mager Holger, Mueller Kai -- Velosynthese 1210 Les Martin, Václavík Jan -- Pilsner Oriental Team 1208 Hepner David, Skripnik Štěpán -- Klokan team 1200 Hašek Ondřej, Beránek Jan -- Plzeňská smršť 1194 Seidl Miroslav, Petreček Tomáš -- Ekonom Praha 1192 Pucherna Eduard, Folprecht Eduard -- MTBO ČZU Praha 1184 Kovář Mirek, Fujáček Honza -- NP Sagiho klacky 1174 Klech Richo, Tomanek Dano -- Kulda Bike Team 1170 Chaloupský David, Paclík Roman -- Klokan team 1164 Jašek Petr, Žák Pavel -- A-team NOVO Bruntal 1140 Štěpánek Martin, LaCarbonara Claudio -- KOS Tesla Brno
Splits
Distance (km) Total Time Split Time Split Pace Split Speed Elevation Change (m)
1,00 00:04:04 00:04:04 00:04:04 14,8 15,89
2,00 00:13:02 00:08:58 00:08:58 6,7 -19,16
3,00 00:14:20 00:01:18 00:01:18 46,2 -52,63
4,00 00:16:00 00:01:40 00:01:40 36,0 -7,32
5,00 00:17:38 00:01:38 00:01:38 36,7 -23,26
6,00 00:21:33 00:03:55 00:03:55 15,3 20,69
7,00 00:23:01 00:01:28 00:01:28 40,9 -13,61
8,00 00:25:42 00:02:41 00:02:41 22,4 20,65
9,00 00:27:45 00:02:03 00:02:03 29,3 -7,22
10,00 00:30:33 00:02:48 00:02:48 21,4 8,44
11,00 00:32:00 00:01:27 00:01:27 41,4 -48,09
12,00 00:35:07 00:03:07 00:03:07 19,3 -16,83
13,00 00:37:24 00:02:17 00:02:17 26,3 -74,67
14,00 00:39:51 00:02:27 00:02:27 24,5 20,71
15,00 00:42:07 00:02:16 00:02:16 26,5 -17,75
16,00 00:43:52 00:01:45 00:01:45 34,3 -36,52
17,00 00:45:59 00:02:07 00:02:07 28,3 -23,37
18,00 00:48:35 00:02:36 00:02:36 23,1 19,42
19,00 00:52:38 00:04:03 00:04:03 14,8 49,16
20,00 00:55:31 00:02:53 00:02:53 20,8 4,92
21,00 00:59:23 00:03:52 00:03:52 15,5 45,90
22,00 01:01:59 00:02:36 00:02:36 23,1 13,64
23,00 01:05:57 00:03:58 00:03:58 15,1 -35,46
24,00 01:07:19 00:01:22 00:01:22 43,9 -52,54
25,00 01:08:37 00:01:18 00:01:18 46,2 -46,12
26,00 01:10:01 00:01:24 00:01:24 42,9 -55,73
27,00 01:12:41 00:02:40 00:02:40 22,5 -31,89
28,00 01:17:51 00:05:10 00:05:10 11,6 42,39
29,00 01:21:29 00:03:38 00:03:38 16,5 -36,84
30,00 01:24:40 00:03:11 00:03:11 18,8 10,65
31,00 01:28:33 00:03:53 00:03:53 15,5 60,80
32,00 01:32:03 00:03:30 00:03:30 17,1 33,16
33,00 01:37:48 00:05:45 00:05:45 10,4 96,26
34,00 01:41:32 00:03:44 00:03:44 16,1 63,09
35,00 01:44:30 00:02:58 00:02:58 20,2 25,55
36,00 01:47:06 00:02:36 00:02:36 23,1 -4,00
37,00 01:48:37 00:01:31 00:01:31 39,6 -34,46
38,00 01:49:52 00:01:15 00:01:15 48,0 -47,73
39,00 01:51:42 00:01:50 00:01:50 32,7 4,85
40,00 01:53:02 00:01:20 00:01:20 45,0 -55,39
41,00 01:55:35 00:02:33 00:02:33 23,5 23,22
42,00 01:58:21 00:02:46 00:02:46 21,7 28,20
43,00 02:00:38 00:02:17 00:02:17 26,3 -14,55
44,00 02:02:01 00:01:23 00:01:23 43,4 -54,04
45,00 02:05:59 00:03:58 00:03:58 15,1 0,59
46,00 02:08:24 00:02:25 00:02:25 24,8 -25,24
47,00 02:11:18 00:02:54 00:02:54 20,7 27,53
48,00 02:13:55 00:02:37 00:02:37 22,9 7,13
49,00 02:17:51 00:03:56 00:03:56 15,3 0,41
50,00 02:20:35 00:02:44 00:02:44 22,0 -58,90
51,00 02:28:21 00:07:46 00:07:46 7,7 10,87
52,00 02:31:33 00:03:12 00:03:12 18,8 58,47
53,00 02:34:37 00:03:04 00:03:04 19,6 -54,99
54,00 02:36:25 00:01:48 00:01:48 33,3 -62,41
55,00 02:37:53 00:01:28 00:01:28 40,9 -100,64
56,00 02:39:52 00:01:59 00:01:59 30,3 -9,86
57,00 02:41:46 00:01:54 00:01:54 31,6 1,02
58,00 02:44:40 00:02:54 00:02:54 20,7 7,57
59,00 02:47:02 00:02:22 00:02:22 25,4 21,26
60,00 02:50:32 00:03:30 00:03:30 17,1 45,67
61,00 02:54:28 00:03:56 00:03:56 15,3 51,26
62,00 03:00:02 00:05:34 00:05:34 10,8 102,98
63,00 03:05:58 00:05:56 00:05:56 10,1 69,80
64,00 03:08:50 00:02:52 00:02:52 20,9 -55,91
65,00 03:12:08 00:03:18 00:03:18 18,2 -97,09
66,00 03:15:22 00:03:14 00:03:14 18,6 -77,09
67,00 03:18:07 00:02:45 00:02:45 21,8 27,52
68,00 03:21:08 00:03:01 00:03:01 19,9 3,44
69,00 03:23:54 00:02:46 00:02:46 21,7 27,54
70,00 03:26:44 00:02:50 00:02:50 21,2 30,06
71,00 03:29:35 00:02:51 00:02:51 21,1 14,68
72,00 03:32:24 00:02:49 00:02:49 21,3 8,24
73,00 03:36:50 00:04:26 00:04:26 13,5 35,20
74,00 03:42:20 00:05:30 00:05:30 10,9 38,15
75,00 03:45:11 00:02:51 00:02:51 21,1 -1,98
76,00 03:49:28 00:04:17 00:04:17 14,0 51,25
77,00 03:52:14 00:02:46 00:02:46 21,7 12,08
78,00 03:54:56 00:02:42 00:02:42 22,2 -0,48
79,00 03:56:14 00:01:18 00:01:18 46,2 -52,06
80,00 03:59:52 00:03:38 00:03:38 16,5 30,65
81,00 04:03:24 00:03:32 00:03:32 17,0 31,40
82,00 04:07:03 00:03:39 00:03:39 16,4 32,25
83,00 04:10:26 00:03:23 00:03:23 17,7 30,89
84,00 04:14:21 00:03:55 00:03:55 15,3 43,51